GMMH

Details ICAO GMMH (VIL)
Name DAKHLA
Region Morocco
Timezone Africa/El_Aaiun (UTC+1.0)
Plans Departing 18
Arriving 20
Stats Elevation 36 ft / 11 m (AMSL)
Location 23.718294° -15.931993°
Runways 1
Magnetic Variation 5.337° W
Sunrise 2017-04-30 06:31:35 UTC / 2017-04-30 07:31:35 Local
Sunset 2017-04-30 19:32:39 UTC / 2017-04-30 20:32:39 Local
Advertisement - Login to hide

Runways

ID Width Length Bearing (true) Bearing (mag) Surface Threshold Offset Overrun Length
03 148 ft / 45 m 9,886 ft / 3,013 m 22.66° 28.00° Asphalt 0 ft / 0 m 323 ft / 98 m
21 148 ft / 45 m 9,886 ft / 3,013 m 202.67° 208.01° Asphalt 0 ft / 0 m 377 ft / 115 m

Map

Weather

Temperature
Clouds and Precipitation
Forecast for 2017-05-01 00:00 UTC. Updated an hour ago
Winds

METAR

Not found

TAF

TAF GMMH 301700Z 3018/0124 02022KT CAVOK

Frequencies

Tower 118.10 MHz TWR
Warning: Do not use this data for real-world aviation or navigation. No guarantee of current accuracy is given.